Time;durP1;ratioP1;P1;durP2;ratioP2;P2;SDS_P1;SDS_P2;PMS_P1;PMS_P2;Temp;Humidity;BMP_temperature;BMP_pressure;BME280_temperature;BME280_humidity;BME280_pressure;Samples;Min_cycle;Max_cycle;Signal;HPM_P1;HPM_P2
2022/10/19 00:01:07;;;;;;;1999.90;999.90;;;12.80;99.90;;;;;;5074757;28;20044;-77
2022/10/19 00:03:34;;;;;;;1999.90;999.90;;;12.70;99.90;;;;;;5073135;28;20496;-77
2022/10/19 00:06:17;;;;;;;1999.90;999.90;;;12.80;99.90;;;;;;5074154;28;20041;-77
2022/10/19 00:08:43;;;;;;;1999.90;999.90;;;12.80;99.90;;;;;;5075170;28;20033;-77
2022/10/19 00:11:09;;;;;;;1999.90;999.90;;;12.80;99.90;;;;;;5074620;28;20037;-77
2022/10/19 00:13:35;;;;;;;1999.90;999.90;;;12.80;99.90;;;;;;5074772;28;20033;-77
2022/10/19 00:16:05;;;;;;;1999.90;999.90;;;12.90;99.90;;;;;;5073010;28;20110;-77
2022/10/19 00:18:31;;;;;;;1999.90;999.90;;;12.90;99.90;;;;;;5074839;28;20068;-77
2022/10/19 00:21:07;;;;;;;1999.90;999.90;;;12.90;99.90;;;;;;5074588;28;20454;-76
2022/10/19 00:23:33;;;;;;;1999.90;999.90;;;12.90;99.90;;;;;;5074796;28;20060;-77
2022/10/19 00:25:59;;;;;;;1999.90;999.90;;;12.90;99.90;;;;;;5074562;28;20061;-77
2022/10/19 00:28:25;;;;;;;1999.90;999.90;;;12.90;99.90;;;;;;5074314;28;20091;-77
2022/10/19 00:30:51;;;;;;;1999.90;999.90;;;12.90;99.90;;;;;;5074185;28;20087;-77
2022/10/19 00:33:20;;;;;;;1999.90;999.90;;;12.90;99.90;;;;;;5074445;28;20116;-77
2022/10/19 00:35:48;;;;;;;1999.90;999.90;;;13.00;99.90;;;;;;5070784;28;20037;-77
2022/10/19 00:38:15;;;;;;;1999.90;999.90;;;13.20;99.90;;;;;;5084169;28;20037;-76
2022/10/19 00:40:40;;;;;;;1999.90;999.90;;;13.20;99.90;;;;;;5091160;28;20033;-76
2022/10/19 00:43:17;;;;;;;1999.90;999.90;;;13.20;99.90;;;;;;5075001;28;20487;-77
2022/10/19 00:45:43;;;;;;;1999.90;999.90;;;13.30;99.90;;;;;;5073927;28;20045;-77
2022/10/19 00:48:12;;;;;;;1999.90;999.90;;;13.30;99.90;;;;;;5072670;28;20028;-77
2022/10/19 00:50:39;;;;;;;1999.90;999.90;;;13.30;99.90;;;;;;5074213;28;20123;-77
2022/10/19 00:53:04;;;;;;;1999.90;999.90;;;13.30;99.90;;;;;;5074105;28;20483;-77
2022/10/19 00:55:30;;;;;;;1999.90;999.90;;;13.30;99.90;;;;;;5074108;28;20029;-77
2022/10/19 00:57:56;;;;;;;1999.90;999.90;;;13.30;99.90;;;;;;5073956;28;20033;-77
2022/10/19 01:00:22;;;;;;;1999.90;999.90;;;13.30;99.90;;;;;;5073999;28;20434;-77
2022/10/19 01:02:47;;;;;;;1999.90;999.90;;;13.20;99.90;;;;;;5072796;28;20036;-77
2022/10/19 01:05:13;;;;;;;1999.90;999.90;;;13.20;99.90;;;;;;5071825;28;21553;-77
2022/10/19 01:07:39;;;;;;;1999.90;999.90;;;13.20;99.90;;;;;;5065601;28;20039;-77
2022/10/19 01:10:06;;;;;;;1999.90;999.90;;;13.20;99.90;;;;;;5076486;28;20056;-77
2022/10/19 01:12:37;;;;;;;1999.90;999.90;;;13.20;99.90;;;;;;5077186;28;20502;-77
2022/10/19 01:15:09;;;;;;;1999.90;999.90;;;13.20;99.90;;;;;;5076921;28;20033;-77
2022/10/19 01:17:50;;;;;;;1999.90;999.90;;;13.20;99.90;;;;;;5077385;28;20041;-77
2022/10/19 01:20:48;;;;;;;1999.90;999.90;;;13.10;99.90;;;;;;5077629;28;20033;-77
2022/10/19 01:23:37;;;;;;;1999.90;999.90;;;13.10;99.90;;;;;;5077186;28;20152;-77
2022/10/19 01:26:21;;;;;;;1999.90;999.90;;;13.10;99.90;;;;;;5076943;28;20036;-77
2022/10/19 01:28:55;;;;;;;1999.90;999.90;;;13.20;99.90;;;;;;5077346;28;20037;-77
2022/10/19 01:31:28;;;;;;;1999.90;999.90;;;13.10;99.90;;;;;;5075935;28;20032;-77
2022/10/19 01:34:05;;;;;;;1999.90;999.90;;;13.10;99.90;;;;;;5077019;28;20036;-77
2022/10/19 01:36:36;;;;;;;1999.90;999.90;;;13.10;99.90;;;;;;5076281;28;20041;-77
2022/10/19 01:39:27;;;;;;;1999.90;999.90;;;13.10;99.90;;;;;;5076826;28;20035;-77
2022/10/19 01:42:20;;;;;;;1999.90;999.90;;;13.00;99.90;;;;;;5075687;28;20033;-77
2022/10/19 01:44:52;;;;;;;1999.90;999.90;;;12.90;99.90;;;;;;5076846;28;20114;-77
2022/10/19 01:47:24;;;;;;;1999.90;999.90;;;12.90;99.90;;;;;;5059035;28;20042;-77
2022/10/19 01:50:01;;;;;;;1999.90;999.90;;;12.80;99.90;;;;;;5055284;28;20040;-77
2022/10/19 01:52:27;;;;;;;1999.90;999.90;;;12.70;99.90;;;;;;5055304;28;20030;-77
2022/10/19 01:54:57;;;;;;;1999.90;999.90;;;12.60;99.90;;;;;;5055083;28;20037;-77
2022/10/19 01:57:27;;;;;;;1999.90;999.90;;;12.50;99.90;;;;;;5055236;28;20041;-77
2022/10/19 01:59:54;;;;;;;1999.90;999.90;;;12.40;99.90;;;;;;5054906;28;20037;-77
2022/10/19 02:02:21;;;;;;;1999.90;999.90;;;12.40;99.90;;;;;;5056407;28;20041;-76
2022/10/19 02:04:48;;;;;;;1999.90;999.90;;;12.40;99.90;;;;;;5054760;28;20042;-77
2022/10/19 02:07:15;;;;;;;1999.90;999.90;;;12.40;99.90;;;;;;5054786;28;20034;-77
2022/10/19 02:09:41;;;;;;;1999.90;999.90;;;12.50;99.90;;;;;;5056290;28;20037;-77
2022/10/19 02:12:09;;;;;;;1999.90;999.90;;;12.50;99.90;;;;;;5056081;28;20403;-77
2022/10/19 02:14:41;;;;;;;1999.90;999.90;;;12.60;99.90;;;;;;5054824;28;20513;-79
2022/10/19 02:17:18;;;;;;;1999.90;999.90;;;12.60;99.90;;;;;;5054934;28;20033;-77
2022/10/19 02:19:44;;;;;;;1999.90;999.90;;;12.80;99.90;;;;;;5056157;28;20164;-77
2022/10/19 02:22:11;;;;;;;1999.90;999.90;;;12.90;99.90;;;;;;5054064;28;20087;-77
2022/10/19 02:24:36;;;;;;;1999.90;999.90;;;12.90;99.90;;;;;;5054547;28;20037;-78
2022/10/19 02:27:04;;;;;;;1999.90;999.90;;;12.90;99.90;;;;;;5054324;28;20033;-78
2022/10/19 02:29:31;;;;;;;1999.90;999.90;;;12.90;99.90;;;;;;5054428;28;20037;-78
2022/10/19 02:31:57;;;;;;;1999.90;999.90;;;13.00;99.90;;;;;;5054561;28;20391;-77
2022/10/19 02:34:23;;;;;;;1999.90;999.90;;;13.00;99.90;;;;;;5055827;28;20033;-77
2022/10/19 02:36:48;;;;;;;1999.90;999.90;;;13.00;99.90;;;;;;5055462;28;20505;-77
2022/10/19 02:39:14;;;;;;;1999.90;999.90;;;13.00;99.90;;;;;;5055650;28;20506;-78
2022/10/19 02:41:49;;;;;;;1999.90;999.90;;;13.10;99.90;;;;;;5054473;28;20442;-77
2022/10/19 02:44:21;;;;;;;1999.90;999.90;;;13.10;99.90;;;;;;5055508;28;20499;-79
2022/10/19 02:46:53;;;;;;;1999.90;999.90;;;13.10;99.90;;;;;;5055327;28;20543;-77
2022/10/19 02:49:19;;;;;;;1999.90;999.90;;;13.10;99.90;;;;;;5055586;28;20127;-77
2022/10/19 02:52:14;;;;;;;1999.90;999.90;;;13.20;99.90;;;;;;5055906;28;20110;-79
2022/10/19 02:54:42;;;;;;;1999.90;999.90;;;13.20;99.90;;;;;;5054141;28;20038;-78
2022/10/19 02:57:19;;;;;;;1999.90;999.90;;;13.20;99.90;;;;;;5055224;28;20488;-77
2022/10/19 02:59:45;;;;;;;1999.90;999.90;;;13.20;99.90;;;;;;5055500;28;20053;-77
2022/10/19 03:02:11;;;;;;;1999.90;999.90;;;13.20;99.90;;;;;;5055549;28;20034;-77
2022/10/19 03:04:37;;;;;;;1999.90;999.90;;;13.20;99.90;;;;;;5053873;28;20140;-77
2022/10/19 03:07:02;;;;;;;1999.90;999.90;;;13.20;99.90;;;;;;5055154;28;20105;-78
2022/10/19 03:09:28;;;;;;;1999.90;999.90;;;13.20;99.90;;;;;;5054054;28;20038;-79
2022/10/19 03:11:56;;;;;;;1999.90;999.90;;;13.20;99.90;;;;;;5055224;28;20523;-77
2022/10/19 03:14:22;;;;;;;1999.90;999.90;;;13.20;99.90;;;;;;5055342;28;20033;-77
2022/10/19 03:16:47;;;;;;;1999.90;999.90;;;13.20;99.90;;;;;;5054780;28;20030;-77
2022/10/19 03:19:13;;;;;;;1999.90;999.90;;;13.20;99.90;;;;;;5053805;28;20026;-77
2022/10/19 03:21:38;;;;;;;1999.90;999.90;;;13.10;99.90;;;;;;5057844;28;20044;-77
2022/10/19 03:24:04;;;;;;;1999.90;999.90;;;13.20;99.90;;;;;;5062776;28;20037;-77
2022/10/19 03:26:30;;;;;;;1999.90;999.90;;;13.10;99.90;;;;;;5058626;28;20056;-77
2022/10/19 03:28:55;;;;;;;1999.90;999.90;;;13.10;99.90;;;;;;5053760;28;20042;-78
2022/10/19 03:31:21;;;;;;;1999.90;999.90;;;13.10;99.90;;;;;;5054549;28;20049;-77
2022/10/19 03:33:46;;;;;;;1999.90;999.90;;;13.10;99.90;;;;;;5055122;28;20095;-78
2022/10/19 03:36:23;;;;;;;1999.90;999.90;;;13.10;99.90;;;;;;5054358;28;20053;-78
2022/10/19 03:38:50;;;;;;;1999.90;999.90;;;13.10;99.90;;;;;;5054910;28;20112;-77
2022/10/19 03:41:16;;;;;;;1999.90;999.90;;;13.10;99.90;;;;;;5053632;28;20526;-77
2022/10/19 03:43:41;;;;;;;1999.90;999.90;;;13.10;99.90;;;;;;5056606;28;20060;-78
2022/10/19 03:46:08;;;;;;;1999.90;999.90;;;13.10;99.90;;;;;;5055658;28;20033;-77
2022/10/19 03:48:34;;;;;;;1999.90;999.90;;;13.10;99.90;;;;;;5054985;28;20033;-78
2022/10/19 03:51:08;;;;;;;1999.90;999.90;;;13.20;99.90;;;;;;5054987;28;20033;-78
2022/10/19 03:53:34;;;;;;;1999.90;999.90;;;13.10;99.90;;;;;;5053427;28;20033;-77
2022/10/19 03:56:04;;;;;;;1999.90;999.90;;;13.00;99.90;;;;;;5054484;28;20042;-78
2022/10/19 03:58:32;;;;;;;1999.90;999.90;;;13.10;99.90;;;;;;5054454;28;20049;-77
2022/10/19 04:00:57;;;;;;;1999.90;999.90;;;13.10;99.90;;;;;;5054889;28;20076;-80
2022/10/19 04:03:23;;;;;;;1999.90;999.90;;;13.10;99.90;;;;;;5054766;28;20036;-78
2022/10/19 04:05:49;;;;;;;1999.90;999.90;;;13.10;99.90;;;;;;5052719;28;20140;-78
2022/10/19 04:08:15;;;;;;;1999.90;999.90;;;13.10;99.90;;;;;;5054657;28;20021;-77
2022/10/19 04:10:40;;;;;;;1999.90;999.90;;;13.10;99.90;;;;;;5054769;28;20476;-78
2022/10/19 04:13:06;;;;;;;1999.90;999.90;;;13.10;99.90;;;;;;5054370;28;20070;-78
2022/10/19 04:15:31;;;;;;;1999.90;999.90;;;13.10;99.90;;;;;;5053998;28;20033;-77
2022/10/19 04:17:57;;;;;;;1999.90;999.90;;;13.20;99.90;;;;;;5053082;28;20030;-78
2022/10/19 04:20:22;;;;;;;1999.90;999.90;;;13.10;99.90;;;;;;5054546;28;20037;-78
2022/10/19 04:22:48;;;;;;;1999.90;999.90;;;13.10;99.90;;;;;;5053087;28;20036;-77
2022/10/19 04:25:13;;;;;;;1999.90;999.90;;;13.10;99.90;;;;;;5053764;28;20061;-78
2022/10/19 04:27:39;;;;;;;1999.90;999.90;;;13.10;99.90;;;;;;5054155;28;20104;-77
2022/10/19 04:30:05;;;;;;;1999.90;999.90;;;13.00;99.90;;;;;;5054265;28;20037;-77
2022/10/19 04:32:30;;;;;;;1999.90;999.90;;;13.00;99.90;;;;;;5054164;28;20061;-78
2022/10/19 04:34:56;;;;;;;1999.90;999.90;;;13.00;99.90;;;;;;5052306;28;20511;-78
2022/10/19 04:37:21;;;;;;;1999.90;999.90;;;13.00;99.90;;;;;;5052744;28;20041;-77
2022/10/19 04:39:47;;;;;;;1999.90;999.90;;;13.10;99.90;;;;;;5052626;28;20483;-78
2022/10/19 04:42:12;;;;;;;1999.90;999.90;;;13.10;99.90;;;;;;5054128;28;20029;-77
2022/10/19 04:44:38;;;;;;;1999.90;999.90;;;13.10;99.90;;;;;;5055885;28;20562;-81
2022/10/19 04:47:03;;;;;;;1999.90;999.90;;;13.10;99.90;;;;;;5056063;28;20034;-78
2022/10/19 04:49:29;;;;;;;1999.90;999.90;;;13.10;99.90;;;;;;5057790;28;20041;-77
2022/10/19 04:51:54;;;;;;;1999.90;999.90;;;13.10;99.90;;;;;;5057921;28;20056;-78
2022/10/19 04:54:20;;;;;;;1999.90;999.90;;;13.10;99.90;;;;;;5057705;28;20502;-78
2022/10/19 04:56:47;;;;;;;1999.90;999.90;;;13.10;99.90;;;;;;5057396;28;20029;-78
2022/10/19 04:59:12;;;;;;;1999.90;999.90;;;13.10;99.90;;;;;;5055644;28;20040;-77
2022/10/19 05:01:40;;;;;;;1999.90;999.90;;;13.10;99.90;;;;;;5057675;28;20025;-78
2022/10/19 05:04:05;;;;;;;1999.90;999.90;;;13.10;99.90;;;;;;5057286;28;20458;-77
2022/10/19 05:06:31;;;;;;;1999.90;999.90;;;13.10;99.90;;;;;;5065902;28;20387;-80
2022/10/19 05:08:57;;;;;;;1999.90;999.90;;;13.10;99.90;;;;;;5074417;28;20040;-80
2022/10/19 05:11:23;;;;;;;1999.90;999.90;;;13.00;99.90;;;;;;5083006;28;20036;-80
2022/10/19 05:13:49;;;;;;;1999.90;999.90;;;13.10;99.90;;;;;;5088386;28;20052;-82
2022/10/19 05:16:17;;;;;;;1999.90;999.90;;;13.00;99.90;;;;;;5081087;28;20029;-80
2022/10/19 05:18:49;;;;;;;1999.90;999.90;;;13.00;99.90;;;;;;5082406;28;20040;-79
2022/10/19 05:21:17;;;;;;;1999.90;999.90;;;13.00;99.90;;;;;;5078346;28;20486;-81
2022/10/19 05:23:43;;;;;;;1999.90;999.90;;;13.00;99.90;;;;;;5079190;28;20040;-81
2022/10/19 05:26:12;;;;;;;1999.90;999.90;;;13.00;99.90;;;;;;5083011;28;20112;-79
2022/10/19 05:28:38;;;;;;;1999.90;999.90;;;13.10;99.90;;;;;;5083372;28;20081;-80
2022/10/19 05:31:13;;;;;;;1999.90;999.90;;;13.10;99.90;;;;;;5085714;28;20129;-80
2022/10/19 05:33:39;;;;;;;1999.90;999.90;;;13.00;99.90;;;;;;5087239;28;20029;-80
2022/10/19 05:36:19;;;;;;;1999.90;999.90;;;13.10;99.90;;;;;;5084372;28;20068;-79
2022/10/19 05:38:46;;;;;;;1999.90;999.90;;;13.10;99.90;;;;;;5086968;28;20040;-80
2022/10/19 05:41:12;;;;;;;1999.90;999.90;;;13.10;99.90;;;;;;5086481;28;20040;-79
2022/10/19 05:43:39;;;;;;;1999.90;999.90;;;13.10;99.90;;;;;;5084776;28;20095;-79
2022/10/19 05:46:12;;;;;;;1999.90;999.90;;;13.10;99.90;;;;;;5086035;28;20033;-80
2022/10/19 05:48:39;;;;;;;1999.90;999.90;;;13.10;99.90;;;;;;5083116;28;20124;-80
2022/10/19 05:51:06;;;;;;;1999.90;999.90;;;13.10;99.90;;;;;;5084035;28;20025;-79
2022/10/19 05:53:32;;;;;;;1999.90;999.90;;;13.10;99.90;;;;;;5082198;28;20111;-78
2022/10/19 05:55:58;;;;;;;1999.90;999.90;;;13.10;99.90;;;;;;5083189;28;20552;-82
2022/10/19 05:58:24;;;;;;;1999.90;999.90;;;13.10;99.90;;;;;;5077326;28;20085;-80
2022/10/19 06:00:55;;;;;;;1999.90;999.90;;;13.00;99.90;;;;;;5085267;28;20472;-80
2022/10/19 06:03:21;;;;;;;1999.90;999.90;;;13.00;99.90;;;;;;5091009;28;20041;-80
2022/10/19 06:05:51;;;;;;;1999.90;999.90;;;13.10;99.90;;;;;;5082594;28;20399;-78
2022/10/19 06:08:17;;;;;;;1999.90;999.90;;;13.10;99.90;;;;;;5089237;28;20013;-78
2022/10/19 06:10:43;;;;;;;1999.90;999.90;;;13.10;99.90;;;;;;5101170;28;20056;-78
2022/10/19 06:13:09;;;;;;;1999.90;999.90;;;13.10;99.90;;;;;;5082430;28;20117;-80
2022/10/19 06:15:35;;;;;;;1999.90;999.90;;;13.10;99.90;;;;;;5079700;28;20040;-78
2022/10/19 06:18:05;;;;;;;1999.90;999.90;;;13.10;99.90;;;;;;5079210;28;20037;-78
2022/10/19 06:20:33;;;;;;;1999.90;999.90;;;13.10;99.90;;;;;;5080450;28;20040;-79
2022/10/19 06:22:59;;;;;;;1999.90;999.90;;;13.10;99.90;;;;;;5079079;28;20099;-79
2022/10/19 06:25:24;;;;;;;1999.90;999.90;;;13.10;99.90;;;;;;5078946;28;20095;-78
2022/10/19 06:27:50;;;;;;;1999.90;999.90;;;13.10;99.90;;;;;;5077855;28;20037;-80
2022/10/19 06:30:16;;;;;;;1999.90;999.90;;;13.20;99.90;;;;;;5073107;28;20037;-80
2022/10/19 06:32:41;;;;;;;1999.90;999.90;;;13.20;99.90;;;;;;5069474;28;20041;-79
2022/10/19 06:35:07;;;;;;;1999.90;999.90;;;13.30;99.90;;;;;;5068324;28;20064;-80
2022/10/19 06:37:32;;;;;;;1999.90;999.90;;;13.30;99.90;;;;;;5069122;28;20039;-79
2022/10/19 06:39:58;;;;;;;1999.90;999.90;;;13.30;99.90;;;;;;5068764;28;20506;-79
2022/10/19 06:42:23;;;;;;;1999.90;999.90;;;13.40;99.90;;;;;;5065747;28;20040;-79
2022/10/19 06:44:49;;;;;;;1999.90;999.90;;;13.40;99.90;;;;;;5079682;28;20048;-80
2022/10/19 06:47:15;;;;;;;1999.90;999.90;;;13.50;99.90;;;;;;5084760;28;20029;-80
2022/10/19 06:49:40;;;;;;;1999.90;999.90;;;13.50;99.90;;;;;;5081961;28;20047;-79
2022/10/19 06:52:06;;;;;;;1999.90;999.90;;;13.50;99.90;;;;;;5077336;28;20033;-80
2022/10/19 06:54:32;;;;;;;1999.90;999.90;;;13.60;99.90;;;;;;5080844;28;20029;-79
2022/10/19 06:56:57;;;;;;;1999.90;999.90;;;13.70;99.90;;;;;;5080005;28;20098;-80
2022/10/19 06:59:23;;;;;;;1999.90;999.90;;;13.80;99.90;;;;;;5077532;28;20033;-79
2022/10/19 07:01:48;;;;;;;1999.90;999.90;;;13.80;99.90;;;;;;5077981;28;20037;-79
2022/10/19 07:04:14;;;;;;;1999.90;999.90;;;14.00;99.90;;;;;;5077024;28;20037;-79
2022/10/19 07:06:39;;;;;;;1999.90;999.90;;;14.10;99.90;;;;;;5076125;28;20084;-78
2022/10/19 07:09:05;;;;;;;1999.90;999.90;;;14.10;99.90;;;;;;5076892;28;20090;-78
2022/10/19 07:11:31;;;;;;;1999.90;999.90;;;14.20;99.90;;;;;;5078012;28;20140;-78
2022/10/19 07:13:56;;;;;;;1999.90;999.90;;;14.20;99.90;;;;;;5076332;28;20033;-78
2022/10/19 07:16:22;;;;;;;1999.90;999.90;;;14.20;99.90;;;;;;5077526;28;20033;-78
2022/10/19 07:18:50;;;;;;;1999.90;999.90;;;14.20;99.90;;;;;;5075915;28;20394;-78
2022/10/19 07:21:17;;;;;;;1999.90;999.90;;;14.20;99.90;;;;;;5077094;28;20029;-78
2022/10/19 07:23:44;;;;;;;1999.90;999.90;;;14.20;99.90;;;;;;5075658;28;20480;-78
2022/10/19 07:26:11;;;;;;;1999.90;999.90;;;14.10;99.90;;;;;;5076196;28;20041;-83
2022/10/19 07:28:38;;;;;;;1999.90;999.90;;;14.10;99.90;;;;;;5077572;28;20029;-81
2022/10/19 07:31:06;;;;;;;1999.90;999.90;;;14.10;99.90;;;;;;5076929;28;20088;-77
2022/10/19 07:33:31;;;;;;;1999.90;999.90;;;14.20;99.90;;;;;;5078791;28;20525;-78
2022/10/19 07:35:59;;;;;;;1999.90;999.90;;;14.20;99.90;;;;;;5081410;28;20069;-79
2022/10/19 07:38:24;;;;;;;1999.90;999.90;;;14.40;99.90;;;;;;5081231;28;20029;-79
2022/10/19 07:40:50;;;;;;;1999.90;999.90;;;14.40;99.90;;;;;;5081210;28;20071;-78
2022/10/19 07:43:15;;;;;;;1999.90;999.90;;;14.50;99.90;;;;;;5077938;28;20029;-82
2022/10/19 07:45:41;;;;;;;1999.90;999.90;;;14.70;99.90;;;;;;5076707;28;20117;-82
2022/10/19 07:48:06;;;;;;;1999.90;999.90;;;14.80;99.90;;;;;;5091315;28;20112;-76
2022/10/19 07:50:32;;;;;;;1999.90;999.90;;;14.90;99.90;;;;;;5078511;28;20118;-85
2022/10/19 07:52:57;;;;;;;1999.90;999.90;;;14.90;99.90;;;;;;5079953;28;20106;-80
2022/10/19 07:55:23;;;;;;;1999.90;999.90;;;15.00;99.90;;;;;;5077341;28;20082;-78
2022/10/19 07:57:49;;;;;;;1999.90;999.90;;;15.00;99.90;;;;;;5075351;28;20033;-79
2022/10/19 08:00:15;;;;;;;1999.90;999.90;;;15.10;99.90;;;;;;5079926;28;20053;-79
2022/10/19 08:02:42;;;;;;;1999.90;999.90;;;15.10;99.90;;;;;;5081562;28;20037;-81
2022/10/19 08:05:07;;;;;;;1999.90;999.90;;;15.00;99.90;;;;;;5078515;28;20577;-81
2022/10/19 08:07:33;;;;;;;1999.90;999.90;;;15.00;99.90;;;;;;5075438;28;20032;-79
2022/10/19 08:09:59;;;;;;;1999.90;999.90;;;15.00;99.90;;;;;;5061504;28;20592;-79
2022/10/19 08:12:25;;;;;;;1999.90;999.90;;;15.10;99.90;;;;;;5057597;28;20030;-78
2022/10/19 08:14:51;;;;;;;1999.90;999.90;;;15.10;99.90;;;;;;5056643;28;20392;-81
2022/10/19 08:17:17;;;;;;;1999.90;999.90;;;15.20;99.90;;;;;;5076526;28;20510;-80
2022/10/19 08:19:44;;;;;;;1999.90;999.90;;;15.20;99.90;;;;;;5070494;28;20045;-78
2022/10/19 08:22:10;;;;;;;1999.90;999.90;;;15.40;99.90;;;;;;5070548;28;20029;-79
2022/10/19 08:24:35;;;;;;;1999.90;999.90;;;15.50;99.90;;;;;;5073508;28;20534;-80
2022/10/19 08:27:01;;;;;;;1999.90;999.90;;;15.60;99.90;;;;;;5074431;28;20037;-80
2022/10/19 08:29:27;;;;;;;1999.90;999.90;;;15.70;99.90;;;;;;5064434;28;20127;-80
2022/10/19 08:31:53;;;;;;;1999.90;999.90;;;15.70;99.90;;;;;;5077262;28;20532;-80
2022/10/19 08:34:18;;;;;;;1999.90;999.90;;;15.90;99.90;;;;;;5071668;28;20037;-81
2022/10/19 08:36:44;;;;;;;1999.90;999.90;;;16.10;99.90;;;;;;5054680;28;20758;-80
2022/10/19 08:39:11;;;;;;;1999.90;999.90;;;16.00;99.90;;;;;;5054719;28;20064;-79
2022/10/19 08:41:39;;;;;;;1999.90;999.90;;;16.00;99.90;;;;;;5055602;28;20044;-80
2022/10/19 08:44:11;;;;;;;1999.90;999.90;;;16.00;99.90;;;;;;5055466;28;20034;-80
2022/10/19 08:47:07;;;;;;;1999.90;999.90;;;16.10;99.90;;;;;;5055881;28;20557;-79
2022/10/19 08:49:34;;;;;;;1999.90;999.90;;;16.20;99.90;;;;;;5055279;28;20095;-80
2022/10/19 08:52:10;;;;;;;1999.90;999.90;;;16.30;99.90;;;;;;5056466;28;20041;-79
2022/10/19 08:54:43;;;;;;;1999.90;999.90;;;16.20;99.90;;;;;;5058687;28;20034;-80
2022/10/19 08:57:47;;;;;;;1999.90;999.90;;;16.30;99.90;;;;;;5055687;28;20033;-80
2022/10/19 09:00:19;;;;;;;1999.90;999.90;;;16.30;99.90;;;;;;5065798;28;20020;-80
2022/10/19 09:03:04;;;;;;;1999.90;999.90;;;16.40;99.90;;;;;;5075691;28;20029;-80
2022/10/19 09:05:41;;;;;;;1999.90;999.90;;;16.50;99.90;;;;;;5057234;28;20092;-80
2022/10/19 09:08:09;;;;;;;1999.90;999.90;;;16.60;99.90;;;;;;5058340;28;20030;-80
2022/10/19 09:10:39;;;;;;;1999.90;999.90;;;16.60;99.90;;;;;;5056471;28;20120;-81
2022/10/19 09:13:21;;;;;;;1999.90;999.90;;;16.80;99.90;;;;;;5058279;28;20117;-80
2022/10/19 09:15:50;;;;;;;1999.90;999.90;;;16.90;99.90;;;;;;5056379;28;20064;-80
2022/10/19 09:18:21;;;;;;;1999.90;999.90;;;16.90;99.90;;;;;;5057518;28;20039;-80
2022/10/19 09:20:49;;;;;;;1999.90;999.90;;;17.20;99.90;;;;;;5056912;28;20116;-80
2022/10/19 09:23:28;;;;;;;1999.90;999.90;;;17.40;99.90;;;;;;5065207;28;20039;-80
2022/10/19 09:25:56;;;;;;;1999.90;999.90;;;17.30;99.90;;;;;;5054023;28;20092;-79
2022/10/19 09:28:43;;;;;;;1999.90;999.90;;;17.50;99.90;;;;;;5053893;28;20061;-79
2022/10/19 09:31:32;;;;;;;1999.90;999.90;;;17.50;99.90;;;;;;5057861;28;20809;-80
2022/10/19 09:34:11;;;;;;;1999.90;999.90;;;17.70;99.90;;;;;;5062513;28;20033;-79
2022/10/19 09:36:42;;;;;;;1999.90;999.90;;;17.80;99.90;;;;;;5062177;28;20048;-80
2022/10/19 09:39:12;;;;;;;1999.90;999.90;;;17.80;99.90;;;;;;5062956;28;20088;-80
2022/10/19 09:41:48;;;;;;;1999.90;999.90;;;17.60;99.90;;;;;;5060900;28;20048;-80
2022/10/19 09:44:15;;;;;;;1999.90;999.90;;;17.60;99.90;;;;;;5062007;28;20038;-80
2022/10/19 09:47:14;;;;;;;1999.90;999.90;;;17.60;99.90;;;;;;5062641;28;20025;-80
2022/10/19 09:49:44;;;;;;;1999.90;999.90;;;17.60;99.90;;;;;;5059416;28;20029;-80
2022/10/19 09:52:38;;;;;;;1999.90;999.90;;;17.50;99.90;;;;;;5058245;28;20037;-80
2022/10/19 09:55:13;;;;;;;1999.90;999.90;;;17.70;99.90;;;;;;5060918;28;20104;-81
2022/10/19 09:57:47;;;;;;;1999.90;999.90;;;18.00;99.90;;;;;;5077558;28;20037;-80
2022/10/19 10:00:18;;;;;;;1999.90;999.90;;;18.00;99.90;;;;;;5078237;28;20459;-79
2022/10/19 10:02:54;;;;;;;1999.90;999.90;;;18.10;99.90;;;;;;5077932;28;20466;-78
2022/10/19 10:05:36;;;;;;;1999.90;999.90;;;18.10;99.90;;;;;;5077524;28;20132;-78
2022/10/19 10:08:03;;;;;;;1999.90;999.90;;;18.30;99.90;;;;;;5077834;28;20402;-80
2022/10/19 10:10:42;;;;;;;1999.90;999.90;;;18.40;99.90;;;;;;5078311;28;20037;-79
2022/10/19 10:13:19;;;;;;;1999.90;999.90;;;18.50;99.90;;;;;;5077225;28;20175;-80
2022/10/19 10:16:07;;;;;;;1999.90;999.90;;;18.50;99.90;;;;;;5076602;28;20097;-79
2022/10/19 10:18:46;;;;;;;1999.90;999.90;;;18.80;99.90;;;;;;5076689;28;20040;-81
2022/10/19 10:21:22;;;;;;;1999.90;999.90;;;19.00;99.90;;;;;;5078136;28;20033;-81
2022/10/19 10:24:05;;;;;;;1999.90;999.90;;;18.80;99.90;;;;;;5077495;28;20041;-82
2022/10/19 10:26:37;;;;;;;1999.90;999.90;;;18.90;99.90;;;;;;5077805;28;20124;-80
2022/10/19 10:29:14;;;;;;;1999.90;999.90;;;19.10;99.90;;;;;;5076136;28;20029;-79
2022/10/19 10:31:43;;;;;;;1999.90;999.90;;;19.20;99.90;;;;;;5076280;28;20052;-82
2022/10/19 10:34:21;;;;;;;1999.90;999.90;;;19.20;99.90;;;;;;5078560;28;20048;-81
2022/10/19 10:36:50;;;;;;;1999.90;999.90;;;19.00;99.90;;;;;;5076742;28;20612;-80
2022/10/19 10:39:16;;;;;;;1999.90;999.90;;;19.30;99.90;;;;;;5078856;28;20051;-83
2022/10/19 10:41:45;;;;;;;1999.90;999.90;;;19.40;99.90;;;;;;5074814;28;20549;-84
2022/10/19 10:44:19;;;;;;;1999.90;999.90;;;19.40;99.90;;;;;;5077210;28;20534;-80
2022/10/19 10:46:59;;;;;;;1999.90;999.90;;;19.20;99.90;;;;;;5076119;28;20040;-79
2022/10/19 10:49:35;;;;;;;1999.90;999.90;;;19.00;99.90;;;;;;5074123;28;20132;-79
2022/10/19 10:52:08;;;;;;;1999.90;999.90;;;18.90;99.90;;;;;;5075947;28;20528;-79
2022/10/19 10:54:34;;;;;;;1999.90;999.90;;;19.00;99.90;;;;;;5075944;28;20052;-79
2022/10/19 10:57:12;;;;;;;1999.90;999.90;;;19.30;99.90;;;;;;5075855;28;20370;-80
2022/10/19 10:59:44;;;;;;;1999.90;999.90;;;19.30;99.90;;;;;;5076701;28;20029;-82
2022/10/19 11:02:36;;;;;;;1999.90;999.90;;;19.40;99.90;;;;;;5077501;28;20064;-80
2022/10/19 11:05:22;;;;;;;1999.90;999.90;;;19.30;99.90;;;;;;5075106;28;20036;-78
2022/10/19 11:07:54;;;;;;;1999.90;999.90;;;19.30;99.90;;;;;;5077379;28;20540;-82
2022/10/19 11:10:28;;;;;;;1999.90;999.90;;;19.30;99.90;;;;;;5076175;28;20043;-77
2022/10/19 11:13:16;;;;;;;1999.90;999.90;;;19.20;99.90;;;;;;5075727;28;20033;-76
2022/10/19 11:15:53;;;;;;;1999.90;999.90;;;19.10;99.90;;;;;;5069818;28;20128;-80
2022/10/19 11:18:34;;;;;;;1999.90;999.90;;;19.30;99.90;;;;;;5073308;28;20033;-81
2022/10/19 11:21:05;;;;;;;1999.90;999.90;;;19.20;99.90;;;;;;5063046;28;20037;-78
2022/10/19 11:23:45;;;;;;;1999.90;999.90;;;19.00;99.90;;;;;;5075507;28;20032;-77
2022/10/19 11:26:44;;;;;;;1999.90;999.90;;;18.90;99.90;;;;;;5064185;28;20041;-77
2022/10/19 11:29:47;;;;;;;1999.90;999.90;;;18.70;99.90;;;;;;5057724;28;20036;-79
2022/10/19 11:32:46;;;;;;;1999.90;999.90;;;18.70;99.90;;;;;;5060174;28;20484;-78
2022/10/19 11:35:30;;;;;;;1999.90;999.90;;;18.90;99.90;;;;;;5033497;28;20888;-78
2022/10/19 11:38:23;;;;;;;1999.90;999.90;;;18.90;99.90;;;;;;5075974;28;20410;-79
2022/10/19 11:41:25;;;;;;;1999.90;999.90;;;19.20;99.90;;;;;;5075389;28;20490;-78
2022/10/19 11:44:09;;;;;;;1999.90;999.90;;;19.50;99.90;;;;;;5073746;28;20131;-78
2022/10/19 11:46:35;;;;;;;1999.90;999.90;;;19.60;99.90;;;;;;5074685;28;20124;-78
2022/10/19 11:49:13;;;;;;;1999.90;999.90;;;19.40;99.90;;;;;;5074863;28;20450;-79
2022/10/19 11:51:50;;;;;;;1999.90;999.90;;;19.40;99.90;;;;;;5080588;28;20045;-77
2022/10/19 11:54:35;;;;;;;1999.90;999.90;;;19.40;99.90;;;;;;5092832;28;20033;-78
2022/10/19 11:57:26;;;;;;;1999.90;999.90;;;19.50;99.90;;;;;;5079117;28;20029;-79
2022/10/19 12:00:20;;;;;;;1999.90;999.90;;;19.70;99.90;;;;;;5076840;28;20037;-80
2022/10/19 12:03:07;;;;;;;1999.90;999.90;;;19.30;99.90;;;;;;5075949;28;20044;-83
2022/10/19 12:05:42;;;;;;;1999.90;999.90;;;19.10;99.90;;;;;;5075284;28;20037;-81
2022/10/19 12:08:32;;;;;;;1999.90;999.90;;;19.20;99.90;;;;;;5076679;28;20116;-82
2022/10/19 12:11:18;;;;;;;1999.90;999.90;;;19.20;99.90;;;;;;5074348;28;20044;-76
2022/10/19 12:13:51;;;;;;;1999.90;999.90;;;19.40;99.90;;;;;;5074606;28;20028;-76
2022/10/19 12:16:20;;;;;;;1999.90;999.90;;;19.30;99.90;;;;;;5074325;28;20040;-76